createdAt,value
2022-10-06T00:01:59.851Z,7.70
2022-10-06T00:04:39.965Z,4.90
2022-10-06T00:07:22.014Z,6.00
2022-10-06T00:10:22.175Z,6.30
2022-10-06T00:12:52.006Z,7.00
2022-10-06T00:15:31.341Z,5.60
2022-10-06T00:18:12.440Z,5.60
2022-10-06T00:20:43.424Z,7.00
2022-10-06T00:23:15.476Z,7.50
2022-10-06T00:25:46.631Z,7.10
2022-10-06T00:28:23.723Z,8.00
2022-10-06T00:31:09.057Z,7.00
2022-10-06T00:33:52.035Z,5.20
2022-10-06T00:36:49.500Z,6.30
2022-10-06T00:39:22.450Z,6.70
2022-10-06T00:41:52.060Z,5.40
2022-10-06T00:44:27.342Z,5.90
2022-10-06T00:46:58.179Z,5.10
2022-10-06T00:49:40.034Z,8.20
2022-10-06T00:52:18.866Z,6.50
2022-10-06T00:54:48.737Z,7.20
2022-10-06T00:57:20.901Z,5.50
2022-10-06T00:59:51.237Z,6.20
2022-10-06T01:02:36.570Z,6.50
2022-10-06T01:05:06.094Z,8.00
2022-10-06T01:07:42.297Z,6.50
2022-10-06T01:10:19.282Z,7.00
2022-10-06T01:12:48.387Z,5.40
2022-10-06T01:15:22.181Z,6.50
2022-10-06T01:18:01.110Z,7.70
2022-10-06T01:20:47.210Z,4.60
2022-10-06T01:23:15.660Z,5.60
2022-10-06T01:25:47.578Z,5.50
2022-10-06T01:28:17.348Z,7.00
2022-10-06T01:30:53.047Z,5.60
2022-10-06T01:33:30.300Z,6.70
2022-10-06T01:36:04.866Z,5.60
2022-10-06T01:38:38.206Z,7.60
2022-10-06T01:41:17.000Z,6.60
2022-10-06T01:43:50.290Z,6.70
2022-10-06T01:46:27.888Z,7.20
2022-10-06T01:48:57.317Z,6.00
2022-10-06T01:51:33.624Z,8.00
2022-10-06T01:54:09.511Z,5.20
2022-10-06T01:56:44.596Z,6.30
2022-10-06T01:59:17.153Z,5.10
2022-10-06T02:01:45.962Z,5.50
2022-10-06T02:04:22.480Z,6.90
2022-10-06T02:06:51.796Z,5.10
2022-10-06T02:09:23.833Z,5.10
2022-10-06T02:11:54.207Z,6.70
2022-10-06T02:14:26.986Z,4.30
2022-10-06T02:17:01.742Z,5.10
2022-10-06T02:19:34.230Z,5.90
2022-10-06T02:22:03.060Z,7.40
2022-10-06T02:24:40.400Z,6.30
2022-10-06T02:27:09.470Z,6.00
2022-10-06T02:29:38.246Z,6.80
2022-10-06T02:32:11.115Z,4.30
2022-10-06T02:34:42.796Z,7.10
2022-10-06T02:37:16.049Z,7.50
2022-10-06T02:39:44.784Z,5.50
2022-10-06T02:42:21.108Z,4.90
2022-10-06T02:44:51.766Z,7.40
2022-10-06T02:47:22.779Z,11.10
2022-10-06T02:49:51.051Z,6.90
2022-10-06T02:52:19.201Z,7.10
2022-10-06T02:54:48.428Z,7.00
2022-10-06T02:57:16.546Z,5.50
2022-10-06T02:59:48.257Z,6.10
2022-10-06T03:02:19.043Z,5.10
2022-10-06T03:04:48.789Z,7.10
2022-10-06T03:07:18.059Z,6.00
2022-10-06T03:09:48.087Z,7.40
2022-10-06T03:12:17.209Z,7.30
2022-10-06T03:14:46.790Z,5.80
2022-10-06T03:17:16.010Z,5.30
2022-10-06T03:19:50.903Z,6.30
2022-10-06T03:22:19.592Z,9.00
2022-10-06T03:24:53.194Z,7.10
2022-10-06T03:29:55.977Z,5.60
2022-10-06T03:32:25.595Z,6.00
2022-10-06T03:35:16.071Z,6.70
2022-10-06T03:37:50.420Z,5.40
2022-10-06T03:40:19.495Z,6.20
2022-10-06T03:42:47.937Z,7.90
2022-10-06T03:45:18.925Z,5.60
2022-10-06T03:47:51.893Z,6.70
2022-10-06T03:50:24.508Z,5.50
2022-10-06T03:52:52.518Z,5.90
2022-10-06T03:55:24.992Z,5.40
2022-10-06T03:57:57.817Z,6.30
2022-10-06T04:00:37.021Z,6.70
2022-10-06T04:03:05.602Z,5.60
2022-10-06T04:05:38.776Z,7.00
2022-10-06T04:08:07.047Z,5.30
2022-10-06T04:13:17.860Z,6.40
2022-10-06T04:15:53.755Z,8.50
2022-10-06T04:18:24.024Z,5.30
2022-10-06T04:20:59.973Z,8.10
2022-10-06T04:23:28.541Z,7.10
2022-10-06T04:26:13.643Z,5.00
2022-10-06T04:28:45.217Z,7.80
2022-10-06T04:31:32.888Z,7.60
2022-10-06T04:34:07.468Z,7.60
2022-10-06T04:36:41.539Z,7.80
2022-10-06T04:39:14.339Z,7.30
2022-10-06T04:41:50.737Z,8.10
2022-10-06T04:44:29.867Z,8.00
2022-10-06T04:47:04.420Z,7.80
2022-10-06T04:49:50.880Z,8.40
2022-10-06T04:52:19.004Z,5.40
2022-10-06T04:54:50.313Z,9.00
2022-10-06T04:57:18.787Z,9.60
2022-10-06T05:00:09.991Z,8.30
2022-10-06T05:02:46.963Z,7.10
2022-10-06T05:05:16.867Z,6.90
2022-10-06T05:07:46.254Z,8.70
2022-10-06T05:10:16.294Z,7.30
2022-10-06T05:12:46.116Z,7.10
2022-10-06T05:15:18.876Z,5.60
2022-10-06T05:17:47.407Z,8.20
2022-10-06T05:20:16.249Z,7.50
2022-10-06T05:22:49.054Z,7.70
2022-10-06T05:25:19.793Z,6.50
2022-10-06T05:27:47.779Z,6.60
2022-10-06T05:30:15.949Z,8.00
2022-10-06T05:32:47.248Z,6.20
2022-10-06T05:35:15.841Z,8.20
2022-10-06T05:37:44.608Z,5.30
2022-10-06T05:40:13.826Z,7.00
2022-10-06T05:42:45.735Z,8.20
2022-10-06T05:45:14.798Z,6.40
2022-10-06T05:47:43.083Z,5.80
2022-10-06T05:50:11.348Z,6.00
2022-10-06T05:52:39.367Z,6.50
2022-10-06T05:55:09.216Z,7.90
2022-10-06T05:57:37.420Z,5.70
2022-10-06T06:00:06.484Z,5.80
2022-10-06T06:02:41.213Z,7.20
2022-10-06T06:05:10.697Z,9.10
2022-10-06T06:07:38.687Z,7.70
2022-10-06T06:10:09.552Z,8.60
2022-10-06T06:12:39.310Z,7.20
2022-10-06T06:15:49.026Z,5.70
2022-10-06T06:18:18.708Z,5.40
2022-10-06T06:20:56.311Z,6.40
2022-10-06T06:23:25.609Z,8.60
2022-10-06T06:26:05.095Z,6.40
2022-10-06T06:28:37.328Z,8.50
2022-10-06T06:31:09.135Z,7.20
2022-10-06T06:33:41.579Z,8.10
2022-10-06T06:36:23.253Z,9.70
2022-10-06T06:38:53.368Z,6.50
2022-10-06T06:41:24.936Z,9.20
2022-10-06T06:44:01.099Z,6.80
2022-10-06T06:46:40.849Z,7.90
2022-10-06T06:49:14.122Z,10.00
2022-10-06T06:51:50.100Z,7.30
2022-10-06T06:54:29.910Z,8.10
2022-10-06T06:57:07.439Z,6.10
2022-10-06T06:59:38.451Z,7.50
2022-10-06T07:02:15.192Z,7.60
2022-10-06T07:04:46.012Z,9.20
2022-10-06T07:07:17.452Z,5.20
2022-10-06T07:12:14.683Z,8.90
2022-10-06T07:18:02.950Z,8.70
2022-10-06T07:20:53.682Z,6.90
2022-10-06T07:23:42.665Z,8.30
2022-10-06T07:26:17.748Z,6.30
2022-10-06T07:28:46.187Z,7.20
2022-10-06T07:31:18.703Z,6.30
2022-10-06T07:33:50.148Z,9.50
2022-10-06T07:36:18.775Z,7.50
2022-10-06T07:38:47.911Z,7.90
2022-10-06T07:41:19.688Z,6.70
2022-10-06T07:43:55.158Z,6.10
2022-10-06T07:46:24.754Z,6.20
2022-10-06T07:48:59.183Z,6.60
2022-10-06T07:51:29.979Z,6.10
2022-10-06T07:54:00.636Z,7.60
2022-10-06T07:56:36.058Z,7.50
2022-10-06T07:59:04.273Z,8.80
2022-10-06T08:01:32.903Z,8.20
2022-10-06T08:04:02.542Z,8.10
2022-10-06T08:06:31.318Z,9.90
2022-10-06T08:08:59.670Z,10.10
2022-10-06T08:11:27.878Z,12.70
2022-10-06T08:13:55.656Z,10.70
2022-10-06T08:16:30.461Z,14.50
2022-10-06T08:19:00.285Z,7.20
2022-10-06T08:21:31.431Z,7.60
2022-10-06T08:31:26.661Z,6.40
2022-10-06T08:33:56.839Z,5.10
2022-10-06T08:36:31.574Z,4.40
2022-10-06T08:39:00.822Z,6.70
2022-10-06T08:41:40.302Z,4.70
2022-10-06T08:44:24.027Z,4.40
2022-10-06T08:47:02.783Z,6.70
2022-10-06T08:49:40.497Z,5.70
2022-10-06T08:52:37.019Z,5.50
2022-10-06T08:55:38.387Z,4.20
2022-10-06T08:58:30.359Z,5.80
2022-10-06T09:01:09.729Z,5.70
2022-10-06T09:03:39.206Z,5.30
2022-10-06T09:06:51.441Z,3.90
2022-10-06T09:09:22.432Z,5.00
2022-10-06T09:12:00.370Z,5.40
2022-10-06T09:14:43.394Z,5.80
2022-10-06T09:17:32.345Z,8.60
2022-10-06T09:20:21.191Z,6.30
2022-10-06T09:22:52.894Z,5.10
2022-10-06T09:25:28.454Z,5.10
2022-10-06T09:28:01.344Z,3.70
2022-10-06T09:30:31.835Z,5.80
2022-10-06T09:33:02.822Z,5.60
2022-10-06T09:36:36.337Z,5.00
2022-10-06T09:40:06.635Z,7.10
2022-10-06T09:42:36.014Z,4.10
2022-10-06T09:45:43.123Z,9.50
2022-10-06T09:48:24.985Z,6.90
2022-10-06T09:51:14.476Z,6.90
2022-10-06T09:56:19.001Z,8.80
2022-10-06T09:58:59.224Z,4.10
2022-10-06T10:04:22.426Z,5.20
2022-10-06T10:06:52.554Z,8.20
2022-10-06T10:09:29.087Z,7.50
2022-10-06T10:12:25.383Z,7.50
2022-10-06T10:15:04.469Z,6.20
2022-10-06T10:17:42.551Z,4.90
2022-10-06T10:20:58.960Z,3.50
2022-10-06T10:23:33.470Z,4.00
2022-10-06T10:26:14.925Z,3.00
2022-10-06T10:29:07.146Z,4.80
2022-10-06T10:31:49.439Z,2.30
2022-10-06T10:34:32.602Z,3.20
2022-10-06T10:37:05.620Z,3.00
2022-10-06T10:39:42.578Z,2.40
2022-10-06T10:42:19.475Z,7.80
2022-10-06T10:45:24.177Z,3.00
2022-10-06T10:47:55.323Z,3.60
2022-10-06T10:50:32.107Z,3.50
2022-10-06T10:53:21.294Z,4.10
2022-10-06T10:55:52.660Z,3.10
2022-10-06T10:58:40.351Z,4.80
2022-10-06T11:01:41.567Z,1.70
2022-10-06T11:04:13.106Z,3.80
2022-10-06T11:07:07.407Z,4.10
2022-10-06T11:09:54.043Z,5.40
2022-10-06T11:12:51.132Z,4.20
2022-10-06T11:15:51.179Z,3.80
2022-10-06T11:18:35.781Z,1.60
2022-10-06T11:21:10.865Z,1.40
2022-10-06T11:23:47.832Z,4.10
2022-10-06T11:26:45.104Z,2.80
2022-10-06T11:29:33.320Z,1.50
2022-10-06T11:32:19.691Z,3.40
2022-10-06T11:34:50.734Z,2.10
2022-10-06T11:37:18.894Z,2.90
2022-10-06T11:40:55.173Z,2.40
2022-10-06T11:43:41.894Z,2.10
2022-10-06T11:46:12.853Z,3.10
2022-10-06T11:48:46.814Z,4.60
2022-10-06T11:51:32.237Z,2.50
2022-10-06T11:54:00.240Z,2.80
2022-10-06T11:56:38.221Z,6.80
2022-10-06T11:59:14.338Z,3.20
2022-10-06T12:02:56.650Z,4.60
2022-10-06T12:05:55.166Z,3.70
2022-10-06T12:08:16.909Z,2.60
2022-10-06T12:10:54.888Z,2.60
2022-10-06T12:17:08.826Z,3.20
2022-10-06T12:20:00.970Z,5.60
2022-10-06T12:23:04.047Z,2.80
2022-10-06T12:25:58.485Z,1.30
2022-10-06T12:29:14.386Z,3.20
2022-10-06T12:31:57.257Z,2.70
2022-10-06T12:34:42.386Z,3.20
2022-10-06T12:37:30.140Z,4.50
2022-10-06T12:40:36.905Z,2.80
2022-10-06T12:43:21.142Z,4.00
2022-10-06T12:46:08.368Z,3.00
2022-10-06T12:48:45.049Z,3.10
2022-10-06T12:51:13.021Z,3.50
2022-10-06T12:53:53.687Z,5.60
2022-10-06T12:56:29.024Z,3.30
2022-10-06T12:58:59.752Z,3.70
2022-10-06T13:01:28.264Z,4.40
2022-10-06T13:03:56.153Z,3.20
2022-10-06T13:06:40.071Z,4.50
2022-10-06T13:09:38.222Z,3.50
2022-10-06T13:12:59.067Z,4.20
2022-10-06T13:15:46.175Z,6.10
2022-10-06T13:18:20.830Z,1.60
2022-10-06T13:21:16.232Z,2.30
2022-10-06T13:23:46.962Z,4.90
2022-10-06T13:26:39.158Z,6.00
2022-10-06T13:29:23.169Z,4.50
2022-10-06T13:31:56.023Z,4.00
2022-10-06T13:35:01.945Z,3.30
2022-10-06T13:37:43.735Z,3.20
2022-10-06T13:40:58.245Z,1.40
2022-10-06T13:43:40.396Z,4.40
2022-10-06T13:46:22.175Z,2.60
2022-10-06T13:49:00.849Z,3.30
2022-10-06T13:51:31.540Z,4.60
2022-10-06T13:54:20.996Z,3.40
2022-10-06T13:56:49.140Z,4.30
2022-10-06T13:59:20.078Z,2.20
2022-10-06T14:01:49.526Z,5.10
2022-10-06T14:04:24.003Z,3.70
2022-10-06T14:07:01.597Z,3.60
2022-10-06T14:09:39.627Z,4.00
2022-10-06T14:12:42.623Z,4.00
2022-10-06T14:15:38.235Z,5.60
2022-10-06T14:18:35.767Z,4.40
2022-10-06T14:21:31.581Z,3.90
2022-10-06T14:24:25.367Z,2.70
2022-10-06T14:27:03.610Z,2.10
2022-10-06T14:29:38.101Z,3.30
2022-10-06T14:32:21.715Z,4.10
2022-10-06T14:35:15.456Z,4.00
2022-10-06T14:37:46.623Z,2.80
2022-10-06T14:40:18.793Z,6.20
2022-10-06T14:44:02.008Z,3.50
2022-10-06T14:47:00.224Z,4.00
2022-10-06T14:52:15.465Z,5.20
2022-10-06T14:54:59.783Z,5.80
2022-10-06T14:57:45.588Z,4.00
2022-10-06T15:03:18.345Z,4.60
2022-10-06T15:06:06.394Z,3.70
2022-10-06T15:08:43.264Z,2.60
2022-10-06T15:11:13.016Z,2.90
2022-10-06T15:14:22.995Z,3.80
2022-10-06T15:17:43.227Z,3.20
2022-10-06T15:20:39.234Z,5.40
2022-10-06T15:23:39.782Z,3.30
2022-10-06T15:26:26.913Z,4.70
2022-10-06T15:29:12.036Z,2.70
2022-10-06T15:31:52.980Z,4.90
2022-10-06T15:34:25.735Z,5.70
2022-10-06T15:36:55.168Z,7.00
2022-10-06T15:39:27.072Z,7.60
2022-10-06T15:41:56.959Z,8.60
2022-10-06T15:44:25.524Z,4.40
2022-10-06T15:46:55.971Z,3.70
2022-10-06T15:49:29.677Z,4.30
2022-10-06T15:52:02.406Z,4.70
2022-10-06T15:54:37.577Z,3.40
2022-10-06T15:57:08.856Z,5.10
2022-10-06T15:59:40.766Z,8.00
2022-10-06T16:02:15.023Z,6.00
2022-10-06T16:04:44.023Z,6.20
2022-10-06T16:09:45.508Z,6.80
2022-10-06T16:12:17.548Z,7.70
2022-10-06T16:14:46.383Z,7.00
2022-10-06T16:19:42.726Z,7.20
2022-10-06T16:22:17.019Z,4.40
2022-10-06T16:24:45.305Z,5.90
2022-10-06T16:27:14.399Z,5.00
2022-10-06T16:30:16.511Z,10.20
2022-10-06T16:32:56.332Z,5.90
2022-10-06T16:35:44.723Z,6.90
2022-10-06T16:38:45.108Z,5.70
2022-10-06T16:42:08.361Z,9.00
2022-10-06T16:45:31.584Z,6.40
2022-10-06T16:48:17.201Z,9.00
2022-10-06T16:51:28.110Z,7.90
2022-10-06T16:55:04.242Z,5.90
2022-10-06T16:58:23.307Z,9.00
2022-10-06T17:01:26.586Z,7.90
2022-10-06T17:04:28.005Z,7.00
2022-10-06T17:07:28.504Z,8.30
2022-10-06T17:10:21.796Z,8.40
2022-10-06T17:19:33.018Z,8.50
2022-10-06T17:22:04.528Z,9.20
2022-10-06T17:25:23.486Z,6.60
2022-10-06T17:28:07.184Z,10.90
2022-10-06T17:31:03.984Z,9.00
2022-10-06T17:33:38.334Z,9.10
2022-10-06T17:36:25.947Z,8.90
2022-10-06T17:42:42.851Z,10.20
2022-10-06T17:46:27.059Z,8.70
2022-10-06T17:52:39.141Z,8.40
2022-10-06T17:55:47.998Z,9.80
2022-10-06T17:59:01.683Z,10.00
2022-10-06T18:01:40.663Z,10.10
2022-10-06T18:04:12.279Z,10.60
2022-10-06T18:09:47.141Z,9.50
2022-10-06T18:12:19.023Z,12.20
2022-10-06T18:15:02.635Z,9.20
2022-10-06T18:17:33.790Z,9.70
2022-10-06T18:20:44.303Z,10.20
2022-10-06T18:23:12.296Z,10.80
2022-10-06T18:25:47.978Z,8.30
2022-10-06T18:28:26.912Z,9.60
2022-10-06T18:36:43.110Z,8.70
2022-10-06T18:39:15.321Z,11.10
2022-10-06T18:42:28.419Z,12.40
2022-10-06T18:46:21.321Z,9.10
2022-10-06T18:49:22.250Z,10.50
2022-10-06T18:53:26.471Z,13.40
2022-10-06T18:55:59.940Z,11.80
2022-10-06T18:58:40.351Z,10.60
2022-10-06T19:01:34.951Z,9.40
2022-10-06T19:04:10.038Z,13.70
2022-10-06T19:07:09.839Z,16.30
2022-10-06T19:09:46.931Z,12.70
2022-10-06T19:12:18.469Z,10.50
2022-10-06T19:15:03.272Z,10.90
2022-10-06T19:17:35.110Z,11.50
2022-10-06T19:20:07.367Z,15.10
2022-10-06T19:22:37.326Z,11.40
2022-10-06T19:25:10.479Z,10.70
2022-10-06T19:28:06.219Z,12.10
2022-10-06T19:30:44.040Z,11.60
2022-10-06T19:33:16.474Z,12.50
2022-10-06T19:36:10.243Z,12.10
2022-10-06T19:39:07.762Z,11.00
2022-10-06T19:41:55.055Z,12.10
2022-10-06T19:44:31.436Z,11.40
2022-10-06T19:47:02.844Z,11.00
2022-10-06T19:49:48.861Z,13.60
2022-10-06T19:52:20.899Z,14.10
2022-10-06T19:54:50.613Z,12.40
2022-10-06T19:59:43.378Z,12.80
2022-10-06T20:02:11.541Z,15.20
2022-10-06T20:04:43.202Z,11.50
2022-10-06T20:07:11.281Z,16.80
2022-10-06T20:10:06.691Z,15.70
2022-10-06T20:13:09.019Z,14.20
2022-10-06T20:15:44.799Z,11.00
2022-10-06T20:18:12.566Z,11.80
2022-10-06T20:21:34.029Z,12.50
2022-10-06T20:24:26.051Z,12.50
2022-10-06T20:26:57.483Z,11.50
2022-10-06T20:29:31.902Z,13.10
2022-10-06T20:32:14.212Z,13.70
2022-10-06T20:34:45.583Z,15.30
2022-10-06T20:37:13.279Z,13.00
2022-10-06T20:40:47.444Z,11.90
2022-10-06T20:43:21.409Z,15.00
2022-10-06T20:45:50.370Z,15.10
2022-10-06T20:48:51.436Z,14.70
2022-10-06T20:51:52.760Z,13.20
2022-10-06T20:54:48.571Z,14.00
2022-10-06T20:57:44.213Z,14.50
2022-10-06T21:00:24.444Z,14.50
2022-10-06T21:03:20.517Z,10.50
2022-10-06T21:06:41.441Z,13.40
2022-10-06T21:09:28.858Z,14.40
2022-10-06T21:13:14.900Z,14.20
2022-10-06T21:16:08.603Z,11.70
2022-10-06T21:18:41.764Z,14.10
2022-10-06T21:22:02.984Z,13.90
2022-10-06T21:24:57.472Z,13.40
2022-10-06T21:28:26.774Z,12.90
2022-10-06T21:31:27.963Z,14.40
2022-10-06T21:34:48.124Z,11.50
2022-10-06T21:38:46.922Z,11.80
2022-10-06T21:42:09.264Z,16.30
2022-10-06T21:48:28.040Z,15.50
2022-10-06T21:51:09.135Z,13.70
2022-10-06T21:53:38.003Z,16.40
2022-10-06T21:56:06.815Z,14.20
2022-10-06T21:58:34.556Z,14.20
2022-10-06T22:01:03.702Z,13.50
2022-10-06T22:03:49.443Z,16.80
2022-10-06T22:06:35.270Z,13.80
2022-10-06T22:09:28.957Z,12.70
2022-10-06T22:12:01.638Z,11.60
2022-10-06T22:15:03.438Z,15.20
2022-10-06T22:18:26.089Z,17.30
2022-10-06T22:20:54.467Z,13.80
2022-10-06T22:23:28.123Z,12.30
2022-10-06T22:25:57.109Z,13.60
2022-10-06T22:28:54.111Z,14.60
2022-10-06T22:31:28.173Z,15.00
2022-10-06T22:34:13.042Z,13.90
2022-10-06T22:36:48.948Z,15.20
2022-10-06T22:39:17.497Z,12.00
2022-10-06T22:42:13.458Z,13.00
2022-10-06T22:44:48.896Z,13.00
2022-10-06T22:47:17.860Z,13.20
2022-10-06T22:49:49.192Z,17.20
2022-10-06T22:52:16.898Z,14.70
2022-10-06T22:55:14.217Z,14.20
2022-10-06T22:58:15.643Z,16.40
2022-10-06T23:01:28.173Z,14.00
2022-10-06T23:03:56.955Z,14.90
2022-10-06T23:06:25.304Z,15.30
2022-10-06T23:13:05.924Z,13.40
2022-10-06T23:15:48.650Z,16.30
2022-10-06T23:18:16.766Z,17.90
2022-10-06T23:21:55.878Z,13.00
2022-10-06T23:24:23.780Z,15.30
2022-10-06T23:30:26.356Z,14.60
2022-10-06T23:33:28.326Z,14.70
2022-10-06T23:36:13.714Z,13.50
2022-10-06T23:38:51.922Z,14.60
2022-10-06T23:42:37.274Z,14.90
2022-10-06T23:45:56.022Z,14.80
2022-10-06T23:48:50.409Z,11.90
2022-10-06T23:51:18.220Z,13.20
2022-10-06T23:54:14.295Z,13.80
2022-10-06T23:56:42.052Z,12.30
2022-10-06T23:59:53.131Z,13.50
